createdAt,value
2023-01-23T00:00:03.393Z,5.17
2023-01-23T00:02:31.563Z,5.60
2023-01-23T00:04:59.373Z,6.07
2023-01-23T00:07:27.631Z,5.47
2023-01-23T00:09:55.413Z,5.37
2023-01-23T00:12:23.160Z,5.67
2023-01-23T00:14:52.225Z,5.50
2023-01-23T00:17:19.971Z,5.40
2023-01-23T00:19:47.714Z,5.50
2023-01-23T00:22:15.983Z,5.80
2023-01-23T00:24:43.692Z,5.40
2023-01-23T00:27:11.588Z,5.97
2023-01-23T00:29:39.408Z,5.67
2023-01-23T00:32:08.569Z,4.77
2023-01-23T00:34:36.336Z,4.93
2023-01-23T00:37:04.105Z,5.30
2023-01-23T00:39:31.995Z,4.80
2023-01-23T00:41:59.812Z,4.93
2023-01-23T00:44:27.648Z,5.60
2023-01-23T00:46:55.375Z,5.27
2023-01-23T00:49:24.797Z,5.43
2023-01-23T00:51:53.065Z,5.60
2023-01-23T00:54:21.691Z,4.53
2023-01-23T00:56:49.884Z,4.97
2023-01-23T00:59:17.643Z,5.33
2023-01-23T01:01:45.793Z,4.60
2023-01-23T01:04:13.602Z,4.90
2023-01-23T01:06:42.775Z,4.80
2023-01-23T01:09:10.560Z,4.77
2023-01-23T01:11:38.352Z,5.03
2023-01-23T01:14:06.604Z,5.20
2023-01-23T01:16:35.279Z,5.13
2023-01-23T01:19:03.181Z,5.00
2023-01-23T01:21:31.286Z,5.13
2023-01-23T01:24:00.446Z,4.97
2023-01-23T01:26:28.172Z,4.67
2023-01-23T01:28:56.000Z,5.17
2023-01-23T01:31:24.595Z,5.53
2023-01-23T01:33:52.656Z,4.93
2023-01-23T01:36:22.182Z,4.77
2023-01-23T01:38:50.030Z,5.07
2023-01-23T01:41:19.295Z,5.17
2023-01-23T01:43:47.299Z,4.60
2023-01-23T01:46:20.488Z,5.00
2023-01-23T01:49:00.698Z,4.40
2023-01-23T01:51:34.967Z,4.87
2023-01-23T01:54:08.588Z,4.07
2023-01-23T01:56:43.800Z,4.53
2023-01-23T01:59:13.111Z,5.10
2023-01-23T02:01:44.235Z,5.03
2023-01-23T02:04:12.470Z,5.57
2023-01-23T02:06:40.420Z,4.83
2023-01-23T02:09:16.312Z,5.27
2023-01-23T02:11:45.712Z,4.73
2023-01-23T02:14:14.539Z,4.63
2023-01-23T02:16:46.594Z,4.73
2023-01-23T02:19:24.393Z,4.37
2023-01-23T02:21:58.100Z,5.37
2023-01-23T02:24:33.325Z,5.10
2023-01-23T02:27:03.290Z,4.97
2023-01-23T02:29:41.843Z,5.33
2023-01-23T02:32:09.793Z,5.27
2023-01-23T02:34:38.831Z,5.37
2023-01-23T02:37:08.295Z,5.07
2023-01-23T02:39:37.507Z,4.87
2023-01-23T02:42:07.731Z,4.77
2023-01-23T02:44:35.575Z,5.70
2023-01-23T02:47:07.875Z,4.77
2023-01-23T02:49:35.679Z,4.80
2023-01-23T02:52:03.522Z,5.07
2023-01-23T02:54:31.802Z,5.03
2023-01-23T02:56:59.709Z,5.07
2023-01-23T02:59:46.481Z,4.70
2023-01-23T03:02:14.531Z,5.27
2023-01-23T03:04:42.543Z,5.07
2023-01-23T03:07:10.336Z,4.87
2023-01-23T03:09:38.146Z,4.40
2023-01-23T03:12:06.139Z,5.10
2023-01-23T03:14:35.268Z,4.73
2023-01-23T03:17:03.129Z,4.93
2023-01-23T03:19:31.303Z,4.30
2023-01-23T03:21:59.361Z,5.30
2023-01-23T03:24:27.176Z,4.93
2023-01-23T03:26:55.002Z,4.70
2023-01-23T03:29:42.231Z,5.00
2023-01-23T03:32:13.175Z,5.03
2023-01-23T03:34:41.585Z,5.10
2023-01-23T03:37:10.804Z,5.50
2023-01-23T03:39:56.429Z,4.40
2023-01-23T03:42:24.310Z,5.10
2023-01-23T03:44:53.041Z,5.23
2023-01-23T03:47:22.138Z,5.53
2023-01-23T03:49:49.917Z,5.70
2023-01-23T03:52:17.700Z,5.70
2023-01-23T03:54:45.714Z,4.50
2023-01-23T03:57:13.534Z,4.53
2023-01-23T03:59:41.381Z,5.20
2023-01-23T04:02:09.240Z,6.20
2023-01-23T04:04:38.446Z,6.07
2023-01-23T04:07:06.808Z,4.97
2023-01-23T04:09:34.569Z,6.20
2023-01-23T04:12:02.679Z,5.73
2023-01-23T04:14:35.360Z,5.20
2023-01-23T04:17:03.135Z,5.30
2023-01-23T04:19:31.033Z,5.10
2023-01-23T04:22:00.482Z,4.73
2023-01-23T04:24:28.915Z,5.43
2023-01-23T04:26:57.074Z,5.87
2023-01-23T04:29:25.027Z,5.57
2023-01-23T04:31:52.831Z,6.20
2023-01-23T04:34:20.611Z,5.43
2023-01-23T04:36:48.299Z,6.00
2023-01-23T04:39:17.399Z,5.03
2023-01-23T04:41:45.176Z,5.50
2023-01-23T04:44:21.947Z,5.17
2023-01-23T04:46:50.858Z,5.03
2023-01-23T04:49:19.555Z,4.80
2023-01-23T04:51:48.405Z,5.67
2023-01-23T04:54:18.618Z,5.13
2023-01-23T04:56:47.210Z,5.17
2023-01-23T04:59:16.764Z,5.40
2023-01-23T05:01:45.320Z,4.83
2023-01-23T05:04:13.285Z,5.77
2023-01-23T05:06:41.062Z,5.37
2023-01-23T05:09:08.803Z,5.43
2023-01-23T05:11:37.959Z,5.50
2023-01-23T05:14:05.749Z,5.17
2023-01-23T05:16:33.657Z,5.77
2023-01-23T05:19:01.464Z,5.63
2023-01-23T05:21:29.357Z,5.80
2023-01-23T05:23:57.087Z,5.27
2023-01-23T05:26:25.017Z,4.97
2023-01-23T05:28:54.154Z,5.43
2023-01-23T05:31:22.033Z,4.90
2023-01-23T05:33:49.876Z,5.47
2023-01-23T05:36:18.658Z,5.87
2023-01-23T05:38:46.793Z,5.73
2023-01-23T05:41:14.530Z,5.70
2023-01-23T05:43:42.467Z,5.13
2023-01-23T05:46:11.681Z,5.63
2023-01-23T05:48:39.454Z,5.53
2023-01-23T05:51:07.374Z,6.50
2023-01-23T05:53:35.126Z,5.70
2023-01-23T05:56:06.820Z,5.43
2023-01-23T05:58:34.814Z,6.00
2023-01-23T06:01:03.453Z,5.30
2023-01-23T06:03:32.688Z,6.00
2023-01-23T06:06:02.041Z,5.13
2023-01-23T06:08:30.171Z,6.13
2023-01-23T06:10:59.569Z,6.13
2023-01-23T06:13:27.873Z,5.70
2023-01-23T06:15:56.352Z,5.90
2023-01-23T06:18:24.379Z,6.13
2023-01-23T06:20:58.641Z,6.43
2023-01-23T06:23:26.395Z,5.50
2023-01-23T06:25:54.172Z,5.77
2023-01-23T06:28:22.112Z,6.70
2023-01-23T06:30:49.898Z,5.33
2023-01-23T06:33:17.701Z,6.47
2023-01-23T06:35:45.434Z,6.30
2023-01-23T06:38:14.489Z,6.07
2023-01-23T06:40:42.236Z,6.03
2023-01-23T06:43:15.024Z,6.50
2023-01-23T06:45:45.704Z,6.37
2023-01-23T06:48:13.727Z,6.77
2023-01-23T06:50:41.798Z,6.77
2023-01-23T06:53:09.792Z,6.73
2023-01-23T06:55:39.152Z,6.80
2023-01-23T06:58:07.014Z,6.27
2023-01-23T07:00:35.051Z,6.60
2023-01-23T07:03:04.031Z,5.97
2023-01-23T07:05:32.259Z,6.53
2023-01-23T07:07:59.960Z,6.20
2023-01-23T07:10:27.731Z,6.30
2023-01-23T07:12:56.821Z,7.07
2023-01-23T07:15:24.660Z,6.43
2023-01-23T07:17:52.465Z,6.33
2023-01-23T07:20:20.823Z,6.53
2023-01-23T07:22:50.007Z,6.43
2023-01-23T07:25:17.854Z,6.23
2023-01-23T07:27:45.607Z,6.73
2023-01-23T07:30:15.195Z,7.17
2023-01-23T07:32:42.955Z,6.40
2023-01-23T07:35:11.345Z,5.97
2023-01-23T07:37:39.136Z,6.33
2023-01-23T07:40:07.851Z,5.63
2023-01-23T07:42:35.644Z,5.57
2023-01-23T07:45:03.601Z,7.10
2023-01-23T07:47:32.689Z,6.63
2023-01-23T07:50:00.769Z,6.17
2023-01-23T07:52:28.521Z,6.03
2023-01-23T07:54:56.377Z,6.57
2023-01-23T07:57:24.299Z,6.07
2023-01-23T07:59:52.019Z,7.37
2023-01-23T08:02:19.765Z,6.77
2023-01-23T08:04:49.120Z,7.13
2023-01-23T08:07:16.937Z,6.63
2023-01-23T08:09:44.842Z,6.40
2023-01-23T08:12:13.594Z,6.77
2023-01-23T08:14:41.793Z,6.97
2023-01-23T08:17:09.561Z,6.67
2023-01-23T08:19:37.414Z,6.43
2023-01-23T08:22:07.020Z,6.40
2023-01-23T08:24:34.782Z,6.43
2023-01-23T08:27:02.602Z,6.50
2023-01-23T08:29:30.351Z,6.73
2023-01-23T08:31:58.342Z,6.73
2023-01-23T08:34:26.713Z,6.60
2023-01-23T08:36:54.433Z,6.30
2023-01-23T08:39:24.544Z,7.03
2023-01-23T08:41:52.460Z,7.47
2023-01-23T08:44:20.243Z,6.90
2023-01-23T08:46:48.131Z,6.90
2023-01-23T08:49:19.544Z,6.90
2023-01-23T08:51:47.577Z,7.07
2023-01-23T08:54:15.578Z,6.50
2023-01-23T08:56:44.677Z,6.97
2023-01-23T08:59:12.685Z,6.30
2023-01-23T09:01:40.892Z,6.83
2023-01-23T09:04:08.646Z,6.40
2023-01-23T09:06:36.432Z,6.43
2023-01-23T09:09:04.367Z,6.63
2023-01-23T09:11:32.563Z,6.77
2023-01-23T09:14:01.664Z,7.33
2023-01-23T09:16:29.570Z,6.40
2023-01-23T09:18:57.404Z,7.30
2023-01-23T09:21:25.219Z,7.07
2023-01-23T09:23:52.944Z,7.03
2023-01-23T09:26:20.791Z,7.00
2023-01-23T09:28:48.565Z,6.53
2023-01-23T09:31:17.819Z,6.77
2023-01-23T09:33:45.765Z,7.60
2023-01-23T09:36:13.636Z,7.00
2023-01-23T09:38:41.478Z,8.03
2023-01-23T09:41:12.650Z,6.60
2023-01-23T09:43:46.812Z,7.70
2023-01-23T09:46:21.664Z,7.00
2023-01-23T09:48:54.687Z,7.40
2023-01-23T09:51:28.269Z,7.43
2023-01-23T09:54:02.361Z,7.30
2023-01-23T09:56:32.762Z,7.60
2023-01-23T09:59:07.435Z,8.80
2023-01-23T10:01:38.032Z,7.80
2023-01-23T10:04:06.680Z,7.00
2023-01-23T10:06:55.668Z,7.33
2023-01-23T10:09:39.315Z,7.20
2023-01-23T10:12:21.712Z,7.17
2023-01-23T10:15:08.448Z,7.90
2023-01-23T10:17:45.032Z,6.73
2023-01-23T10:20:30.109Z,8.10
2023-01-23T10:23:11.922Z,7.90
2023-01-23T10:25:42.066Z,7.83
2023-01-23T10:28:23.186Z,7.73
2023-01-23T10:30:56.160Z,6.73
2023-01-23T10:33:35.044Z,6.37
2023-01-23T10:36:07.685Z,6.83
2023-01-23T10:38:42.472Z,7.23
2023-01-23T10:41:15.059Z,7.13
2023-01-23T10:43:43.535Z,7.00
2023-01-23T10:46:13.638Z,6.57
2023-01-23T10:48:45.572Z,7.10
2023-01-23T10:51:36.733Z,6.47
2023-01-23T10:54:16.994Z,6.13
2023-01-23T10:56:58.195Z,6.50
2023-01-23T10:59:32.634Z,6.50
2023-01-23T11:02:03.860Z,6.90
2023-01-23T11:04:37.078Z,6.80
2023-01-23T11:07:10.591Z,6.40
2023-01-23T11:09:51.103Z,6.43
2023-01-23T11:12:21.478Z,6.50
2023-01-23T11:14:49.671Z,6.70
2023-01-23T11:17:21.699Z,5.73
2023-01-23T11:19:54.272Z,6.70
2023-01-23T11:22:30.213Z,5.97
2023-01-23T11:24:58.910Z,6.30
2023-01-23T11:27:29.763Z,5.83
2023-01-23T11:30:18.070Z,6.30
2023-01-23T11:32:55.117Z,6.97
2023-01-23T11:35:30.544Z,6.37
2023-01-23T11:38:02.467Z,6.00
2023-01-23T11:40:30.311Z,6.60
2023-01-23T11:42:58.237Z,5.23
2023-01-23T11:45:40.154Z,6.27
2023-01-23T11:48:23.835Z,6.40
2023-01-23T11:51:01.277Z,6.27
2023-01-23T11:53:42.880Z,5.67
2023-01-23T11:56:26.373Z,6.43
2023-01-23T11:59:16.842Z,6.03
2023-01-23T12:02:03.011Z,5.60
2023-01-23T12:04:44.365Z,5.90
2023-01-23T12:07:20.922Z,6.67
2023-01-23T12:10:19.759Z,6.60
2023-01-23T12:13:00.912Z,6.70
2023-01-23T12:15:38.699Z,6.50
2023-01-23T12:18:19.585Z,6.47
2023-01-23T12:20:57.828Z,7.17
2023-01-23T12:23:46.361Z,6.17
2023-01-23T12:26:16.168Z,6.50
2023-01-23T12:29:06.322Z,6.57
2023-01-23T12:31:45.902Z,6.43
2023-01-23T12:34:28.746Z,5.93
2023-01-23T12:37:29.122Z,5.60
2023-01-23T12:40:11.332Z,5.27
2023-01-23T12:42:45.260Z,5.83
2023-01-23T12:45:23.585Z,6.00
2023-01-23T12:48:00.955Z,7.10
2023-01-23T12:50:38.006Z,6.13
2023-01-23T12:53:10.945Z,6.27
2023-01-23T12:55:47.414Z,6.40
2023-01-23T12:58:17.858Z,5.47
2023-01-23T13:01:06.265Z,5.40
2023-01-23T13:04:12.720Z,5.83
2023-01-23T13:06:51.985Z,5.57
2023-01-23T13:09:30.455Z,5.30
2023-01-23T13:12:08.134Z,5.33
2023-01-23T13:17:48.114Z,5.47
2023-01-23T13:20:46.581Z,5.40
2023-01-23T13:23:38.302Z,5.23
2023-01-23T13:26:36.154Z,5.47
2023-01-23T13:29:07.632Z,5.43
2023-01-23T13:31:40.210Z,5.73
2023-01-23T13:34:36.050Z,5.73
2023-01-23T13:37:51.169Z,4.97
2023-01-23T13:40:23.040Z,4.90
2023-01-23T13:42:51.117Z,5.03
2023-01-23T13:45:33.177Z,4.87
2023-01-23T14:22:33.887Z,5.00
2023-01-23T14:25:01.651Z,4.57
2023-01-23T14:27:36.770Z,4.60
2023-01-23T14:30:17.964Z,4.43
2023-01-23T14:32:46.810Z,4.20
2023-01-23T14:35:18.633Z,4.80
2023-01-23T14:37:48.091Z,4.90
2023-01-23T14:40:25.861Z,4.20
2023-01-23T14:42:59.971Z,4.33
2023-01-23T14:45:32.899Z,4.90
2023-01-23T14:48:08.475Z,4.83
2023-01-23T14:50:36.925Z,4.10
2023-01-23T14:53:08.072Z,4.43
2023-01-23T14:55:38.628Z,4.67
2023-01-23T14:58:07.530Z,4.40
2023-01-23T15:00:37.218Z,5.07
2023-01-23T15:03:05.551Z,4.37
2023-01-23T15:05:33.560Z,4.40
2023-01-23T15:08:04.231Z,5.63
2023-01-23T15:10:37.707Z,5.17
2023-01-23T15:13:09.982Z,5.07
2023-01-23T15:15:38.207Z,4.50
2023-01-23T15:18:22.674Z,4.70
2023-01-23T15:20:55.388Z,5.10
2023-01-23T15:23:31.381Z,4.63
2023-01-23T15:26:31.510Z,4.87
2023-01-23T15:29:02.448Z,5.13
2023-01-23T15:31:33.281Z,5.63
2023-01-23T15:34:19.660Z,5.10
2023-01-23T15:36:49.525Z,5.20
2023-01-23T15:39:22.202Z,5.07
2023-01-23T15:41:53.288Z,5.23
2023-01-23T15:44:23.507Z,5.20
2023-01-23T15:46:51.465Z,5.37
2023-01-23T15:49:25.886Z,5.67
2023-01-23T15:51:56.683Z,5.70
2023-01-23T15:54:29.032Z,5.43
2023-01-23T15:57:07.181Z,5.30
2023-01-23T15:59:35.925Z,5.90
2023-01-23T16:02:03.828Z,5.23
2023-01-23T16:04:31.611Z,5.43
2023-01-23T16:07:02.324Z,5.27
2023-01-23T16:09:32.525Z,5.83
2023-01-23T16:12:02.118Z,5.80
2023-01-23T16:14:29.975Z,4.73
2023-01-23T16:17:04.758Z,5.13
2023-01-23T16:19:39.466Z,5.67
2023-01-23T16:22:07.298Z,5.90
2023-01-23T16:24:38.626Z,5.00
2023-01-23T16:27:11.252Z,5.77
2023-01-23T16:29:39.089Z,5.47
2023-01-23T16:32:08.009Z,5.33
2023-01-23T16:34:50.382Z,5.80
2023-01-23T16:37:20.036Z,5.43
2023-01-23T16:39:48.547Z,5.53
2023-01-23T16:42:21.595Z,6.50
2023-01-23T16:44:49.507Z,6.53
2023-01-23T16:47:17.462Z,6.50
2023-01-23T16:49:54.067Z,7.33
2023-01-23T16:52:26.731Z,6.30
2023-01-23T16:54:55.569Z,6.77
2023-01-23T16:57:25.648Z,6.77
2023-01-23T16:59:57.483Z,6.87
2023-01-23T17:02:29.551Z,7.47
2023-01-23T17:04:57.415Z,7.10
2023-01-23T17:07:25.207Z,7.63
2023-01-23T17:09:54.179Z,7.30
2023-01-23T17:12:27.761Z,7.53
2023-01-23T17:14:57.060Z,7.57
2023-01-23T17:17:30.353Z,7.10
2023-01-23T17:19:58.564Z,7.87
2023-01-23T17:22:30.526Z,7.63
2023-01-23T17:24:58.769Z,8.40
2023-01-23T17:27:27.935Z,7.73
2023-01-23T17:29:55.702Z,7.60
2023-01-23T17:32:30.476Z,7.13
2023-01-23T17:35:02.611Z,7.27
2023-01-23T17:37:31.328Z,8.03
2023-01-23T17:39:59.071Z,7.87
2023-01-23T17:42:28.343Z,9.00
2023-01-23T17:44:56.185Z,7.97
2023-01-23T17:47:24.227Z,7.60
2023-01-23T17:49:54.532Z,7.50
2023-01-23T17:52:24.769Z,7.43
2023-01-23T17:54:52.892Z,7.20
2023-01-23T17:57:21.008Z,6.93
2023-01-23T17:59:50.179Z,5.97
2023-01-23T18:02:27.805Z,6.33
2023-01-23T18:04:55.984Z,6.00
2023-01-23T18:07:23.786Z,6.20
2023-01-23T18:09:52.529Z,6.47
2023-01-23T18:12:29.430Z,6.53
2023-01-23T18:15:09.985Z,5.50
2023-01-23T18:17:48.909Z,5.40
2023-01-23T18:20:19.323Z,6.17
2023-01-23T18:22:47.751Z,5.20
2023-01-23T18:25:16.975Z,6.30
2023-01-23T18:27:46.900Z,5.90
2023-01-23T18:30:34.145Z,6.13
2023-01-23T18:33:20.395Z,5.37
2023-01-23T18:36:05.512Z,5.03
2023-01-23T18:38:44.777Z,5.43
2023-01-23T18:41:20.904Z,5.23
2023-01-23T18:43:52.518Z,5.00
2023-01-23T18:46:25.478Z,5.90
2023-01-23T18:48:54.165Z,5.47
2023-01-23T18:51:36.479Z,5.60
2023-01-23T18:54:18.427Z,5.10
2023-01-23T18:56:56.813Z,5.60
2023-01-23T18:59:29.956Z,5.70
2023-01-23T19:02:09.425Z,5.50
2023-01-23T19:04:44.106Z,6.13
2023-01-23T19:07:18.449Z,6.00
2023-01-23T19:09:47.422Z,6.97
2023-01-23T19:12:26.474Z,6.07
2023-01-23T19:15:21.363Z,6.43
2023-01-23T19:18:00.269Z,6.17
2023-01-23T19:20:32.896Z,6.80
2023-01-23T19:23:16.766Z,6.83
2023-01-23T19:25:47.823Z,6.10
2023-01-23T19:28:16.455Z,6.23
2023-01-23T19:30:45.102Z,6.37
2023-01-23T19:33:17.303Z,5.90
2023-01-23T19:35:46.312Z,7.83
2023-01-23T19:38:15.416Z,7.47
2023-01-23T19:40:43.455Z,7.73
2023-01-23T19:43:15.623Z,7.40
2023-01-23T19:45:43.775Z,7.43
2023-01-23T19:48:12.278Z,7.50
2023-01-23T19:50:41.869Z,7.70
2023-01-23T19:53:13.273Z,6.87
2023-01-23T19:55:41.656Z,7.60
2023-01-23T19:58:09.662Z,7.10
2023-01-23T20:00:37.567Z,7.03
2023-01-23T20:03:06.026Z,6.90
2023-01-23T20:05:33.831Z,7.50
2023-01-23T20:08:03.025Z,6.83
2023-01-23T20:10:30.885Z,6.70
2023-01-23T20:12:58.653Z,6.83
2023-01-23T20:15:27.576Z,8.23
2023-01-23T20:17:55.431Z,8.47
2023-01-23T20:20:23.993Z,7.57
2023-01-23T20:22:52.072Z,8.07
2023-01-23T20:25:21.598Z,8.10
2023-01-23T20:27:49.600Z,8.07
2023-01-23T20:30:22.033Z,7.83
2023-01-23T20:32:50.033Z,7.90
2023-01-23T20:35:18.028Z,8.83
2023-01-23T20:37:45.961Z,9.13
2023-01-23T20:40:13.870Z,8.17
2023-01-23T20:42:42.946Z,8.10
2023-01-23T20:45:11.376Z,9.43
2023-01-23T20:47:39.077Z,8.00
2023-01-23T20:50:07.531Z,8.43
2023-01-23T20:52:52.745Z,8.00
2023-01-23T20:55:20.850Z,9.57
2023-01-23T20:58:07.933Z,8.23
2023-01-23T21:00:35.702Z,8.80
2023-01-23T21:03:03.671Z,8.47
2023-01-23T21:05:31.469Z,8.63
2023-01-23T21:07:59.542Z,9.27
2023-01-23T21:10:27.268Z,8.37
2023-01-23T21:12:56.483Z,8.07
2023-01-23T21:15:24.228Z,8.63
2023-01-23T21:17:52.232Z,8.27
2023-01-23T21:20:20.100Z,8.73
2023-01-23T21:22:48.219Z,8.97
2023-01-23T21:25:16.091Z,9.37
2023-01-23T21:27:43.999Z,8.60
2023-01-23T21:30:14.022Z,8.63
2023-01-23T21:32:42.040Z,8.83
2023-01-23T21:35:10.408Z,8.07
2023-01-23T21:37:38.302Z,9.33
2023-01-23T21:40:07.423Z,9.87
2023-01-23T21:42:35.284Z,8.63
2023-01-23T21:45:03.017Z,8.97
2023-01-23T21:47:32.208Z,9.43
2023-01-23T21:49:59.978Z,7.60
2023-01-23T21:52:29.704Z,9.30
2023-01-23T21:54:57.555Z,8.67
2023-01-23T21:57:25.386Z,8.43
2023-01-23T22:00:07.005Z,9.53
2023-01-23T22:02:36.228Z,9.37
2023-01-23T22:05:04.030Z,8.73
2023-01-23T22:07:31.758Z,8.93
2023-01-23T22:09:59.534Z,8.97
2023-01-23T22:12:28.143Z,8.83
2023-01-23T22:14:56.722Z,9.53
2023-01-23T22:17:24.780Z,10.20
2023-01-23T22:19:53.916Z,8.87
2023-01-23T22:22:21.670Z,9.17
2023-01-23T22:24:49.597Z,8.67
2023-01-23T22:27:17.623Z,8.37
2023-01-23T22:29:45.473Z,9.63
2023-01-23T22:32:13.337Z,9.27
2023-01-23T22:34:41.098Z,8.53
2023-01-23T22:37:10.334Z,9.27
2023-01-23T22:39:38.297Z,9.33
2023-01-23T22:42:06.156Z,9.33
2023-01-23T22:44:33.896Z,8.47
2023-01-23T22:47:01.894Z,9.23
2023-01-23T22:49:29.649Z,8.77
2023-01-23T22:51:57.489Z,8.97
2023-01-23T22:54:26.759Z,9.03
2023-01-23T22:56:54.518Z,9.43
2023-01-23T22:59:22.303Z,9.27
2023-01-23T23:01:50.151Z,8.60
2023-01-23T23:04:17.860Z,8.43
2023-01-23T23:06:45.686Z,8.47
2023-01-23T23:09:13.460Z,7.97
2023-01-23T23:11:42.677Z,8.47
2023-01-23T23:14:11.169Z,8.37
2023-01-23T23:16:38.927Z,9.23
2023-01-23T23:19:06.732Z,8.60
2023-01-23T23:21:37.434Z,8.70
2023-01-23T23:24:07.372Z,8.47
2023-01-23T23:26:35.528Z,8.47
2023-01-23T23:29:05.454Z,8.90
2023-01-23T23:31:33.617Z,8.90
2023-01-23T23:34:01.642Z,8.00
2023-01-23T23:36:29.689Z,8.47
2023-01-23T23:38:57.495Z,8.43
2023-01-23T23:41:25.308Z,8.20
2023-01-23T23:43:53.192Z,8.70
2023-01-23T23:46:22.317Z,9.40
2023-01-23T23:48:50.080Z,9.20
2023-01-23T23:51:19.702Z,8.60
2023-01-23T23:53:47.947Z,9.40
2023-01-23T23:56:21.238Z,8.13
2023-01-23T23:58:49.268Z,8.70
